Costa Fascinosa — ICPO — position and weather

sailwx.info

Track history (hours):
 
Tides and Currents Weather Stations Pressure Air Temp Water Temp Dewpoint Dewpoint Depression Visibility Wind Speed Wind Dir Waves Ship Positions

Costa Fascinosa

Last reported at 2018-Feb-19 04:49 UTC. Time now 2018-Feb-25 07:52 UTC.
Position S 23°30' W 043°50'.

Length 291 m; draft 8.3 m.

Type: Passenger vessel. MMSI: 247313500.

Date/timePositionNaut miles runAvg speedWind from/ knotsBaromVisibWave heightAir tempDewpointWater temp
2018-Feb-19 04:49S 23°30' W 043°50'412.2
2018-Feb-19 04:27S 23°28' W 043°45'511.9
2018-Feb-19 04:00S 23°26' W 043°40'711.6
2018-Feb-19 03:26S 23°24' W 043°33'511.5
2018-Feb-19 03:00S 23°22' W 043°28'611.6
2018-Feb-19 02:30S 23°19' W 043°22'611.8
2018-Feb-19 02:01S 23°17' W 043°16'911.9
2018-Feb-19 01:16S 23°11' W 043°10'312.4
2018-Feb-19 01:00S 23°08' W 043°08'611.4
2018-Feb-19 00:31S 23°03' W 043°05'612.4
2018-Feb-19 00:01S 22°58' W 043°08'5 9.2
2018-Feb-18 23:31S 22°53' W 043°10'1 1.8
2018-Feb-18 23:00S 22°54' W 043°11'0 0.0
2018-Feb-18 22:30S 22°54' W 043°11'0 0.0
2018-Feb-18 22:00S 22°54' W 043°11'0 0.0
2018-Feb-18 21:30S 22°54' W 043°11'0 0.0
2018-Feb-18 21:00S 22°54' W 043°11'0 0.0
2018-Feb-18 20:30S 22°54' W 043°11'0 0.0
2018-Feb-18 20:00S 22°54' W 043°11'0 0.0
2018-Feb-18 19:29S 22°54' W 043°11'0 0.0
2018-Feb-18 18:59S 22°54' W 043°11'0 0.0
2018-Feb-18 18:28S 22°54' W 043°11'0 0.0
2018-Feb-18 17:58S 22°54' W 043°11'0 0.0
2018-Feb-18 17:28S 22°54' W 043°11'0 0.0
2018-Feb-18 16:58S 22°54' W 043°11'0 0.0
2018-Feb-18 16:28S 22°54' W 043°11'0 0.0
2018-Feb-18 15:58S 22°54' W 043°11'0 0.0
2018-Feb-18 15:28S 22°54' W 043°11'0 0.0
2018-Feb-18 14:58S 22°54' W 043°11'0 0.0
2018-Feb-18 14:28S 22°54' W 043°11'0 0.0
2018-Feb-18 13:58S 22°54' W 043°11'0 0.0
2018-Feb-18 13:28S 22°54' W 043°11'0 0.0
2018-Feb-18 12:58S 22°54' W 043°11'0 0.0
2018-Feb-18 12:28S 22°54' W 043°11'0 0.0
2018-Feb-18 11:58S 22°54' W 043°11'0 0.0
2018-Feb-18 11:28S 22°54' W 043°11'0 0.0
2018-Feb-18 10:58S 22°54' W 043°11'0 0.0
2018-Feb-18 10:31S 22°54' W 043°11'1 1.1
2018-Feb-18 10:00S 22°53' W 043°10'4 8.3
2018-Feb-18 09:31S 22°57' W 043°08'4 7.5
2018-Feb-18 09:00S 23°01' W 043°07'510.7
2018-Feb-18 08:31S 23°05' W 043°04'610.9
2018-Feb-18 08:00S 23°10' W 043°02'511.0
2018-Feb-18 07:30S 23°16' W 043°02'610.7
2018-Feb-18 06:59S 23°21' W 043°01'510.3
2018-Feb-18 06:30S 23°26' W 043°01'510.2
2018-Feb-18 06:00S 23°29' W 043°05'510.0
2018-Feb-18 05:30S 23°31' W 043°10'510.2
2018-Feb-18 05:00S 23°31' W 043°16'510.2
2018-Feb-18 04:30S 23°32' W 043°22'510.2
2018-Feb-18 04:00S 23°33' W 043°27'510.6
2018-Feb-18 03:30S 23°34' W 043°33'510.6
2018-Feb-18 03:00S 23°35' W 043°38'510.5
2018-Feb-18 02:30S 23°36' W 043°44'610.9
2018-Feb-18 02:00S 23°36' W 043°50'710.8
2018-Feb-18 01:19S 23°30' W 043°55'411.6
2018-Feb-18 00:57S 23°26' W 043°56'511.9
2018-Feb-18 00:30S 23°21' W 043°56'911.8
2018-Feb-17 23:44S 23°12' W 043°56'311.3
2018-Feb-17 23:29S 23°10' W 043°58'611.4
2018-Feb-17 22:58S 23°09' W 044°05'  
2018-Feb-11 03:46S 23°31' W 043°56'612.9
2018-Feb-11 03:18S 23°30' W 043°50'413.2
2018-Feb-11 03:01S 23°28' W 043°46'1113.2
2018-Feb-11 02:11S 23°24' W 043°35'613.5
2018-Feb-11 01:44S 23°22' W 043°29'1413.8
2018-Feb-11 00:44S 23°16' W 043°15'613.4
2018-Feb-11 00:18S 23°12' W 043°11'513.1
2018-Feb-10 23:56S 23°08' W 043°08'512.0
2018-Feb-10 23:30S 23°03' W 043°06'611.5
2018-Feb-10 23:00S 22°57' W 043°08'5 9.1
2018-Feb-10 22:31S 22°53' W 043°10'1 1.5
2018-Feb-10 22:00S 22°54' W 043°11'0 0.0
2018-Feb-10 21:30S 22°54' W 043°11'0 0.0
2018-Feb-10 21:00S 22°54' W 043°11'0 0.0
2018-Feb-10 20:30S 22°54' W 043°11'0 0.0
2018-Feb-10 20:00S 22°54' W 043°11'0 0.0
2018-Feb-10 19:29S 22°54' W 043°11'0 0.0
2018-Feb-10 18:59S 22°54' W 043°11'0 0.0
2018-Feb-10 18:29S 22°54' W 043°11'0 0.0
2018-Feb-10 17:59S 22°54' W 043°11'0 0.0
2018-Feb-10 17:29S 22°54' W 043°11'0 0.0
2018-Feb-10 16:59S 22°54' W 043°11'0 0.0
2018-Feb-10 16:29S 22°54' W 043°11'0 0.0
2018-Feb-10 15:59S 22°54' W 043°11'0 0.0
2018-Feb-10 15:29S 22°54' W 043°11'0 0.0
2018-Feb-10 14:59S 22°54' W 043°11'0 0.0
2018-Feb-10 14:29S 22°54' W 043°11'0 0.0
2018-Feb-10 13:59S 22°54' W 043°11'0 0.0
2018-Feb-10 13:29S 22°54' W 043°11'0 0.0
2018-Feb-10 12:58S 22°54' W 043°11'0 0.0
2018-Feb-10 12:28S 22°54' W 043°11'0 0.0
2018-Feb-10 11:58S 22°54' W 043°11'0 0.0
2018-Feb-10 11:28S 22°54' W 043°11'0 0.0
2018-Feb-10 10:58S 22°54' W 043°11'0 0.0
2018-Feb-10 10:28S 22°54' W 043°11'0 0.0
2018-Feb-10 09:58S 22°54' W 043°11'0 0.0
2018-Feb-10 09:30S 22°54' W 043°11'1 2.3
2018-Feb-10 09:00S 22°53' W 043°10'5 9.6
2018-Feb-10 08:30S 22°58' W 043°08'714.5
2018-Feb-10 08:00S 23°05' W 043°06'612.7
2018-Feb-10 07:31S 23°11' W 043°07'611.6
2018-Feb-10 07:00S 23°16' W 043°10'611.3
2018-Feb-10 06:30S 23°19' W 043°15'611.2
2018-Feb-10 06:01S 23°21' W 043°20'611.4
2018-Feb-10 05:31S 23°22' W 043°27'611.5
2018-Feb-10 05:01S 23°23' W 043°33'611.4
2018-Feb-10 04:26S 23°24' W 043°40'511.3
2018-Feb-10 04:01S 23°24' W 043°45'611.3
2018-Feb-10 03:30S 23°25' W 043°51'511.3
2018-Feb-10 03:01S 23°26' W 043°57'611.3
2018-Feb-10 02:30S 23°27' W 044°03'1711.8
2018-Feb-10 01:01S 23°18' W 044°20'111.9
2018-Feb-10 00:55S 23°17' W 044°21'12 8.3
2018-Feb-09 23:26S 23°05' W 044°17'  
Track history (hours):
 
Tides and Currents Weather Stations Pressure Air Temp Water Temp Dewpoint Dewpoint Depression Visibility Wind Speed Wind Dir Waves Ship Positions

Costa Fascinosa

Last reported at 2018-Feb-19 04:49 UTC. Time now 2018-Feb-25 07:52 UTC.
Position S 23°30' W 043°50'.

Length 291 m; draft 8.3 m.

Type: Passenger vessel. MMSI: 247313500.

Date/timePositionNaut miles runAvg speedWind from/ knotsBaromVisibWave heightAir tempDewpointWater temp
2018-Feb-19 04:49S 23°30' W 043°50'412.2
2018-Feb-19 04:27S 23°28' W 043°45'511.9
2018-Feb-19 04:00S 23°26' W 043°40'711.6
2018-Feb-19 03:26S 23°24' W 043°33'511.5
2018-Feb-19 03:00S 23°22' W 043°28'611.6
2018-Feb-19 02:30S 23°19' W 043°22'611.8
2018-Feb-19 02:01S 23°17' W 043°16'911.9
2018-Feb-19 01:16S 23°11' W 043°10'312.4
2018-Feb-19 01:00S 23°08' W 043°08'611.4
2018-Feb-19 00:31S 23°03' W 043°05'612.4
2018-Feb-19 00:01S 22°58' W 043°08'5 9.2
2018-Feb-18 23:31S 22°53' W 043°10'1 1.8
2018-Feb-18 23:00S 22°54' W 043°11'0 0.0
2018-Feb-18 22:30S 22°54' W 043°11'0 0.0
2018-Feb-18 22:00S 22°54' W 043°11'0 0.0
2018-Feb-18 21:30S 22°54' W 043°11'0 0.0
2018-Feb-18 21:00S 22°54' W 043°11'0 0.0
2018-Feb-18 20:30S 22°54' W 043°11'0 0.0
2018-Feb-18 20:00S 22°54' W 043°11'0 0.0
2018-Feb-18 19:29S 22°54' W 043°11'0 0.0
2018-Feb-18 18:59S 22°54' W 043°11'0 0.0
2018-Feb-18 18:28S 22°54' W 043°11'0 0.0
2018-Feb-18 17:58S 22°54' W 043°11'0 0.0
2018-Feb-18 17:28S 22°54' W 043°11'0 0.0
2018-Feb-18 16:58S 22°54' W 043°11'0 0.0
2018-Feb-18 16:28S 22°54' W 043°11'0 0.0
2018-Feb-18 15:58S 22°54' W 043°11'0 0.0
2018-Feb-18 15:28S 22°54' W 043°11'0 0.0
2018-Feb-18 14:58S 22°54' W 043°11'0 0.0
2018-Feb-18 14:28S 22°54' W 043°11'0 0.0
2018-Feb-18 13:58S 22°54' W 043°11'0 0.0
2018-Feb-18 13:28S 22°54' W 043°11'0 0.0
2018-Feb-18 12:58S 22°54' W 043°11'0 0.0
2018-Feb-18 12:28S 22°54' W 043°11'0 0.0
2018-Feb-18 11:58S 22°54' W 043°11'0 0.0
2018-Feb-18 11:28S 22°54' W 043°11'0 0.0
2018-Feb-18 10:58S 22°54' W 043°11'0 0.0
2018-Feb-18 10:31S 22°54' W 043°11'1 1.1
2018-Feb-18 10:00S 22°53' W 043°10'4 8.3
2018-Feb-18 09:31S 22°57' W 043°08'4 7.5
2018-Feb-18 09:00S 23°01' W 043°07'510.7
2018-Feb-18 08:31S 23°05' W 043°04'610.9
2018-Feb-18 08:00S 23°10' W 043°02'511.0
2018-Feb-18 07:30S 23°16' W 043°02'610.7
2018-Feb-18 06:59S 23°21' W 043°01'510.3
2018-Feb-18 06:30S 23°26' W 043°01'510.2
2018-Feb-18 06:00S 23°29' W 043°05'510.0
2018-Feb-18 05:30S 23°31' W 043°10'510.2
2018-Feb-18 05:00S 23°31' W 043°16'510.2
2018-Feb-18 04:30S 23°32' W 043°22'510.2
2018-Feb-18 04:00S 23°33' W 043°27'510.6
2018-Feb-18 03:30S 23°34' W 043°33'510.6
2018-Feb-18 03:00S 23°35' W 043°38'510.5
2018-Feb-18 02:30S 23°36' W 043°44'610.9
2018-Feb-18 02:00S 23°36' W 043°50'710.8
2018-Feb-18 01:19S 23°30' W 043°55'411.6
2018-Feb-18 00:57S 23°26' W 043°56'511.9
2018-Feb-18 00:30S 23°21' W 043°56'911.8
2018-Feb-17 23:44S 23°12' W 043°56'311.3
2018-Feb-17 23:29S 23°10' W 043°58'611.4
2018-Feb-17 22:58S 23°09' W 044°05'  
2018-Feb-11 03:46S 23°31' W 043°56'612.9
2018-Feb-11 03:18S 23°30' W 043°50'413.2
2018-Feb-11 03:01S 23°28' W 043°46'1113.2
2018-Feb-11 02:11S 23°24' W 043°35'613.5
2018-Feb-11 01:44S 23°22' W 043°29'1413.8
2018-Feb-11 00:44S 23°16' W 043°15'613.4
2018-Feb-11 00:18S 23°12' W 043°11'513.1
2018-Feb-10 23:56S 23°08' W 043°08'512.0
2018-Feb-10 23:30S 23°03' W 043°06'611.5
2018-Feb-10 23:00S 22°57' W 043°08'5 9.1
2018-Feb-10 22:31S 22°53' W 043°10'1 1.5
2018-Feb-10 22:00S 22°54' W 043°11'0 0.0
2018-Feb-10 21:30S 22°54' W 043°11'0 0.0
2018-Feb-10 21:00S 22°54' W 043°11'0 0.0
2018-Feb-10 20:30S 22°54' W 043°11'0 0.0
2018-Feb-10 20:00S 22°54' W 043°11'0 0.0
2018-Feb-10 19:29S 22°54' W 043°11'0 0.0
2018-Feb-10 18:59S 22°54' W 043°11'0 0.0
2018-Feb-10 18:29S 22°54' W 043°11'0 0.0
2018-Feb-10 17:59S 22°54' W 043°11'0 0.0
2018-Feb-10 17:29S 22°54' W 043°11'0 0.0
2018-Feb-10 16:59S 22°54' W 043°11'0 0.0
2018-Feb-10 16:29S 22°54' W 043°11'0 0.0
2018-Feb-10 15:59S 22°54' W 043°11'0 0.0
2018-Feb-10 15:29S 22°54' W 043°11'0 0.0
2018-Feb-10 14:59S 22°54' W 043°11'0 0.0
2018-Feb-10 14:29S 22°54' W 043°11'0 0.0
2018-Feb-10 13:59S 22°54' W 043°11'0 0.0
2018-Feb-10 13:29S 22°54' W 043°11'0 0.0
2018-Feb-10 12:58S 22°54' W 043°11'0 0.0
2018-Feb-10 12:28S 22°54' W 043°11'0 0.0
2018-Feb-10 11:58S 22°54' W 043°11'0 0.0
2018-Feb-10 11:28S 22°54' W 043°11'0 0.0
2018-Feb-10 10:58S 22°54' W 043°11'0 0.0
2018-Feb-10 10:28S 22°54' W 043°11'0 0.0
2018-Feb-10 09:58S 22°54' W 043°11'0 0.0
2018-Feb-10 09:30S 22°54' W 043°11'1 2.3
2018-Feb-10 09:00S 22°53' W 043°10'5 9.6
2018-Feb-10 08:30S 22°58' W 043°08'714.5
2018-Feb-10 08:00S 23°05' W 043°06'612.7
2018-Feb-10 07:31S 23°11' W 043°07'611.6
2018-Feb-10 07:00S 23°16' W 043°10'611.3
2018-Feb-10 06:30S 23°19' W 043°15'611.2
2018-Feb-10 06:01S 23°21' W 043°20'611.4
2018-Feb-10 05:31S 23°22' W 043°27'611.5
2018-Feb-10 05:01S 23°23' W 043°33'611.4
2018-Feb-10 04:26S 23°24' W 043°40'511.3
2018-Feb-10 04:01S 23°24' W 043°45'611.3
2018-Feb-10 03:30S 23°25' W 043°51'511.3
2018-Feb-10 03:01S 23°26' W 043°57'611.3
2018-Feb-10 02:30S 23°27' W 044°03'1711.8
2018-Feb-10 01:01S 23°18' W 044°20'111.9
2018-Feb-10 00:55S 23°17' W 044°21'12 8.3
2018-Feb-09 23:26S 23°05' W 044°17'  

Dump ship's entire track history